Monday, June 18, 2018, 8:52 PM EDT
Back to Local

KACK, Nantucket Memorial Airport

Location: Nantucket, MA, United States Lat: 41.25
Local Time: 8:52 PM EDT ( 0:52 GMT) Lon: -70.067
Time Zone: US/Eastern Elev: 49 ft

Show me the last for .
Show Coded

Time T Td Feel RH Dir Speed Gust Alt SLP Vis Weather Sky Remarks
2018-06-18 19:53 63 62 - 96 220° 15 - 29.86 29.85 0 FG VV002 6-hr Min Temp (8pm): 63.0°F
6-hr Max Temp (8pm): 66.0°F
2018-06-18 19:30 63 62 - 96 210° 15 - 29.85 - 0 FG VV002 None
2018-06-18 19:17 63 62 - 96 210° 16 - 29.85 - 0 FG VV002 None
2018-06-18 18:53 63 62 - 96 200° 17 - 29.84 29.84 6 BR OVC002 None
2018-06-18 17:53 65 63 - 93 210° 18 - 29.86 29.86 10 OVC003 None
2018-06-18 16:53 65 63 - 93 210° 15 - 29.90 29.90 10 FEW006 None
2018-06-18 15:53 65 62 - 90 210° 16 - 29.92 29.92 10 FEW006 None
2018-06-18 15:31 66 62 - 87 210° 14 - 29.93 - 10 BKN006 None
2018-06-18 14:53 65 62 - 90 210° 14 - 29.94 29.94 10 SCT006 None
2018-06-18 14:26 65 62 - 90 210° 13 - 29.96 - 10 BKN006 None
2018-06-18 14:15 66 62 - 87 210° 13 - 29.97 - 10 SCT007 None
2018-06-18 13:53 65 61 - 87 210° 12 - 29.98 29.98 10 CLR 6-hr Min Temp (2pm): 63.0°F
6-hr Max Temp (2pm): 69.1°F
2018-06-18 12:53 67 61 - 81 210° 14 - 29.99 29.99 10 CLR None
2018-06-18 11:53 68 61 - 78 210° 16 22 30.00 30.00 10 CLR None
2018-06-18 10:53 66 61 - 83 210° 10 - 30.02 30.01 10 CLR None
2018-06-18 09:53 66 61 - 83 230° 13 - 30.03 30.03 10 CLR None
2018-06-18 08:53 64 60 - 86 210° 13 - 30.04 30.04 10 CLR None
2018-06-18 07:53 63 60 - 90 220° 12 - 30.06 30.06 10 CLR 6-hr Min Temp (8am): 60.1°F
6-hr Max Temp (8am): 63.0°F
2018-06-18 06:53 63 60 - 90 210° 10 - 30.06 30.06 10 CLR None
2018-06-18 05:53 61 60 - 96 230° 8 - 30.08 30.07 10 CLR None
2018-06-18 04:53 60 59 - 96 230° 8 - 30.07 30.06 10 CLR None
2018-06-18 03:53 60 59 - 96 220° 9 - 30.08 30.07 10 CLR None
2018-06-18 02:53 61 59 - 93 230° 9 - 30.08 30.08 10 CLR None
2018-06-18 01:53 60 59 - 96 230° 9 - 30.08 30.08 10 CLR 6-hr Min Temp (2am): 59.0°F
6-hr Max Temp (2am): 62.1°F
2018-06-18 00:53 60 60 - 100 220° 6 - 30.08 30.08 6 BR CLR 24-hr Min Temp (1am): 57.9°F
24-hr Max Temp (1am): 82.0°F
2018-06-17 23:53 60 59 - 96 210° 6 - 30.09 30.09 6 BR CLR None
2018-06-17 22:53 61 59 - 93 220° 7 - 30.10 30.10 10 CLR None
2018-06-17 21:53 59 57 - 93 190° 6 - 30.11 30.11 10 CLR None
2018-06-17 20:53 60 58 - 92 200° 6 - 30.11 30.11 10 CLR None

Support USWX by starting your Amazon purchase here.